createdAt,value
2016-09-10T00:00:18.934Z,0
2016-09-10T00:01:19.666Z,0
2016-09-10T00:02:21.101Z,0
2016-09-10T00:03:20.010Z,0
2016-09-10T00:04:20.913Z,0
2016-09-10T00:05:19.314Z,0
2016-09-10T00:06:21.136Z,0
2016-09-10T00:07:18.972Z,0
2016-09-10T00:08:19.815Z,0
2016-09-10T00:09:20.819Z,0
2016-09-10T00:10:19.265Z,0
2016-09-10T00:11:19.683Z,0
2016-09-10T00:12:18.822Z,0
2016-09-10T00:13:20.460Z,0
2016-09-10T00:14:19.821Z,0
2016-09-10T00:15:21.824Z,0
2016-09-10T00:16:18.747Z,0
2016-09-10T00:17:19.589Z,0
2016-09-10T00:18:20.131Z,0
2016-09-10T00:19:20.457Z,0
2016-09-10T00:20:22.582Z,0
2016-09-10T00:21:19.702Z,0
2016-09-10T00:22:20.045Z,0
2016-09-10T00:23:21.358Z,0
2016-09-10T00:24:20.902Z,0
2016-09-10T00:25:20.123Z,0
2016-09-10T00:26:18.784Z,0
2016-09-10T00:27:19.634Z,0
2016-09-10T00:28:21.119Z,0
2016-09-10T00:29:20.120Z,0
2016-09-10T00:30:19.949Z,0
2016-09-10T00:31:19.169Z,0
2016-09-10T00:32:20.870Z,0
2016-09-10T00:33:19.161Z,0
2016-09-10T00:34:19.146Z,0
2016-09-10T00:35:19.019Z,0
2016-09-10T00:36:19.588Z,0
2016-09-10T00:37:19.652Z,0
2016-09-10T00:38:19.564Z,0
2016-09-10T00:39:19.498Z,0
2016-09-10T00:40:18.941Z,0
2016-09-10T00:41:20.654Z,0
2016-09-10T00:42:20.134Z,0
2016-09-10T00:43:19.812Z,0
2016-09-10T00:44:19.515Z,0
2016-09-10T00:45:20.616Z,0
2016-09-10T00:46:19.581Z,0
2016-09-10T00:47:21.946Z,0
2016-09-10T00:48:19.186Z,0
2016-09-10T00:49:19.866Z,0
2016-09-10T00:50:20.082Z,0
2016-09-10T00:51:19.823Z,0
2016-09-10T00:52:19.650Z,0
2016-09-10T00:53:21.259Z,0
2016-09-10T00:54:19.967Z,0
2016-09-10T00:55:20.864Z,0
2016-09-10T00:56:19.507Z,0
2016-09-10T00:57:21.934Z,0
2016-09-10T00:58:20.155Z,0
2016-09-10T00:59:19.356Z,0
2016-09-10T01:00:21.637Z,0
2016-09-10T01:01:19.770Z,0
2016-09-10T01:02:19.396Z,0
2016-09-10T01:03:19.831Z,0
2016-09-10T01:04:20.763Z,0
2016-09-10T01:05:22.639Z,0
2016-09-10T01:06:20.766Z,0
2016-09-10T01:07:19.615Z,0
2016-09-10T01:08:21.712Z,0
2016-09-10T01:09:20.934Z,0
2016-09-10T01:10:21.542Z,0
2016-09-10T01:11:22.431Z,0
2016-09-10T01:12:19.107Z,0
2016-09-10T01:13:20.805Z,0
2016-09-10T01:14:21.097Z,0
2016-09-10T01:15:21.833Z,0
2016-09-10T01:16:21.086Z,0
2016-09-10T01:17:19.993Z,0
2016-09-10T01:18:21.014Z,0
2016-09-10T01:19:21.412Z,0
2016-09-10T01:20:22.055Z,0
2016-09-10T01:21:20.656Z,0
2016-09-10T01:22:20.028Z,0
2016-09-10T01:23:20.680Z,0
2016-09-10T01:24:20.400Z,0
2016-09-10T01:25:20.766Z,0
2016-09-10T01:26:21.849Z,0
2016-09-10T01:27:21.522Z,0
2016-09-10T01:28:21.254Z,0
2016-09-10T01:29:21.110Z,0
2016-09-10T01:30:21.900Z,0
2016-09-10T01:31:21.633Z,0
2016-09-10T01:32:22.059Z,0
2016-09-10T01:33:22.400Z,0
2016-09-10T01:34:21.883Z,0
2016-09-10T01:35:21.274Z,0
2016-09-10T01:36:22.036Z,0
2016-09-10T01:37:21.593Z,0
2016-09-10T01:38:21.285Z,0
2016-09-10T01:39:21.944Z,0
2016-09-10T01:40:22.184Z,0
2016-09-10T01:41:22.511Z,0
2016-09-10T01:42:20.752Z,0
2016-09-10T01:43:21.518Z,0
2016-09-10T01:44:22.055Z,0
2016-09-10T01:45:21.340Z,0
2016-09-10T01:46:21.495Z,0
2016-09-10T01:47:23.713Z,0
2016-09-10T01:48:21.747Z,0
2016-09-10T01:49:22.009Z,0
2016-09-10T01:50:21.068Z,0
2016-09-10T01:51:22.006Z,0
2016-09-10T01:52:21.022Z,0
2016-09-10T01:53:20.827Z,0
2016-09-10T01:54:20.260Z,0
2016-09-10T01:55:21.722Z,0
2016-09-10T01:56:21.739Z,0
2016-09-10T01:57:22.604Z,0
2016-09-10T01:58:21.941Z,0
2016-09-10T01:59:21.966Z,0
2016-09-10T02:00:22.287Z,0
2016-09-10T02:01:21.715Z,0
2016-09-10T02:02:21.930Z,0
2016-09-10T02:03:22.100Z,0
2016-09-10T02:04:22.299Z,0
2016-09-10T02:05:24.301Z,0
2016-09-10T02:06:22.189Z,0
2016-09-10T02:07:21.448Z,0
2016-09-10T02:08:22.137Z,0
2016-09-10T02:09:23.007Z,0
2016-09-10T02:10:21.909Z,0
2016-09-10T02:11:23.369Z,0
2016-09-10T02:12:21.175Z,0
2016-09-10T02:13:22.037Z,0
2016-09-10T02:14:22.323Z,0
2016-09-10T02:15:22.942Z,0
2016-09-10T02:16:22.565Z,0
2016-09-10T02:17:22.150Z,0
2016-09-10T02:18:22.013Z,0
2016-09-10T02:19:22.835Z,0
2016-09-10T02:20:22.724Z,0
2016-09-10T02:21:21.824Z,0
2016-09-10T02:22:22.789Z,0
2016-09-10T02:23:22.178Z,0
2016-09-10T02:24:21.866Z,0
2016-09-10T02:25:23.090Z,0
2016-09-10T02:26:22.256Z,0
2016-09-10T02:27:22.227Z,0
2016-09-10T02:28:22.520Z,0
2016-09-10T02:29:21.967Z,0
2016-09-10T02:30:23.109Z,0
2016-09-10T02:31:23.254Z,0
2016-09-10T02:32:22.290Z,0
2016-09-10T02:33:24.062Z,0
2016-09-10T02:34:22.545Z,0
2016-09-10T02:35:22.379Z,0
2016-09-10T02:36:22.265Z,0
2016-09-10T02:37:23.544Z,0
2016-09-10T02:38:23.422Z,0
2016-09-10T02:39:21.793Z,0
2016-09-10T02:40:22.150Z,0
2016-09-10T02:41:23.629Z,0
2016-09-10T02:42:22.800Z,0
2016-09-10T02:43:23.973Z,0
2016-09-10T02:44:21.775Z,0
2016-09-10T02:45:21.871Z,0
2016-09-10T02:46:24.490Z,0
2016-09-10T02:47:23.146Z,0
2016-09-10T02:48:22.289Z,0
2016-09-10T02:49:22.495Z,0
2016-09-10T02:50:23.808Z,0
2016-09-10T02:51:23.949Z,0
2016-09-10T02:52:22.259Z,0
2016-09-10T02:53:21.939Z,0
2016-09-10T02:54:22.245Z,0
2016-09-10T02:55:22.155Z,0
2016-09-10T02:56:21.939Z,0
2016-09-10T02:57:23.250Z,0
2016-09-10T02:58:21.799Z,0
2016-09-10T02:59:21.790Z,0
2016-09-10T03:00:22.575Z,0
2016-09-10T03:01:22.202Z,0
2016-09-10T03:02:22.247Z,0
2016-09-10T03:03:22.507Z,0
2016-09-10T03:04:23.541Z,0
2016-09-10T03:05:22.118Z,0
2016-09-10T03:06:23.294Z,0
2016-09-10T03:07:23.034Z,0
2016-09-10T03:08:23.552Z,0
2016-09-10T03:09:22.134Z,0
2016-09-10T03:10:23.721Z,0
2016-09-10T03:11:23.305Z,0
2016-09-10T03:12:23.203Z,0
2016-09-10T03:13:22.362Z,0
2016-09-10T03:14:23.540Z,0
2016-09-10T03:15:23.506Z,0
2016-09-10T03:16:25.482Z,0
2016-09-10T03:17:23.255Z,0
2016-09-10T03:18:22.520Z,0
2016-09-10T03:19:23.902Z,0
2016-09-10T03:20:24.644Z,0
2016-09-10T03:21:22.270Z,0
2016-09-10T03:22:24.046Z,0
2016-09-10T03:23:23.632Z,0
2016-09-10T03:24:23.628Z,0
2016-09-10T03:25:22.524Z,0
2016-09-10T03:26:24.830Z,0
2016-09-10T03:27:23.466Z,0
2016-09-10T03:28:22.543Z,0
2016-09-10T03:29:23.816Z,0
2016-09-10T03:30:24.862Z,0
2016-09-10T03:31:22.854Z,0
2016-09-10T03:32:22.765Z,0
2016-09-10T03:33:23.067Z,0
2016-09-10T03:34:23.833Z,0
2016-09-10T03:35:23.212Z,0
2016-09-10T03:36:24.346Z,0
2016-09-10T03:37:23.728Z,0
2016-09-10T03:38:23.928Z,0
2016-09-10T03:39:22.091Z,0
2016-09-10T03:40:23.288Z,0
2016-09-10T03:41:22.794Z,0
2016-09-10T03:42:24.682Z,0
2016-09-10T03:43:23.554Z,0
2016-09-10T03:44:24.304Z,0
2016-09-10T03:45:23.321Z,0
2016-09-10T03:46:24.238Z,0
2016-09-10T03:47:22.673Z,0
2016-09-10T03:48:23.140Z,0
2016-09-10T03:49:24.839Z,0
2016-09-10T03:50:23.611Z,0
2016-09-10T03:51:23.043Z,0
2016-09-10T03:52:23.709Z,0
2016-09-10T03:53:23.522Z,0
2016-09-10T03:54:25.971Z,0
2016-09-10T03:55:23.916Z,0
2016-09-10T03:56:26.205Z,0
2016-09-10T03:57:23.208Z,0
2016-09-10T03:58:23.514Z,0
2016-09-10T03:59:22.943Z,0
2016-09-10T04:00:22.643Z,0
2016-09-10T04:01:24.551Z,0
2016-09-10T04:02:24.725Z,0
2016-09-10T04:03:24.763Z,0
2016-09-10T04:04:25.215Z,0
2016-09-10T04:05:25.979Z,0
2016-09-10T04:06:24.506Z,0
2016-09-10T04:07:24.364Z,0
2016-09-10T04:08:24.646Z,0
2016-09-10T04:09:23.107Z,0
2016-09-10T04:10:24.218Z,0
2016-09-10T04:11:25.734Z,0
2016-09-10T04:12:24.586Z,0
2016-09-10T04:13:23.892Z,0
2016-09-10T04:14:25.755Z,4
2016-09-10T04:15:23.837Z,4
2016-09-10T04:16:24.984Z,0
2016-09-10T04:17:24.983Z,0
2016-09-10T04:18:26.072Z,4
2016-09-10T04:19:25.871Z,0
2016-09-10T04:20:25.563Z,4
2016-09-10T04:21:25.546Z,4
2016-09-10T04:22:25.103Z,4
2016-09-10T04:23:25.881Z,4
2016-09-10T04:24:27.087Z,8
2016-09-10T04:25:24.895Z,12
2016-09-10T04:26:24.610Z,12
2016-09-10T04:27:26.570Z,16
2016-09-10T04:28:26.174Z,16
2016-09-10T04:29:24.587Z,20
2016-09-10T04:30:25.689Z,28
2016-09-10T04:31:25.545Z,32
2016-09-10T04:32:25.209Z,36
2016-09-10T04:33:24.996Z,44
2016-09-10T04:34:25.575Z,48
2016-09-10T04:35:25.198Z,60
2016-09-10T04:36:25.996Z,64
2016-09-10T04:37:25.701Z,76
2016-09-10T04:38:26.914Z,84
2016-09-10T04:39:26.300Z,100
2016-09-10T04:40:24.736Z,112
2016-09-10T04:41:24.951Z,124
2016-09-10T04:42:25.884Z,140
2016-09-10T04:43:25.306Z,156
2016-09-10T04:44:24.732Z,172
2016-09-10T04:45:25.254Z,192
2016-09-10T04:46:26.343Z,216
2016-09-10T04:47:28.265Z,240
2016-09-10T04:48:26.025Z,268
2016-09-10T04:49:27.055Z,292
2016-09-10T04:50:24.635Z,316
2016-09-10T04:51:25.142Z,348
2016-09-10T04:52:25.311Z,376
2016-09-10T04:53:24.759Z,408
2016-09-10T04:54:24.482Z,440
2016-09-10T04:55:23.944Z,472
2016-09-10T04:56:25.667Z,508
2016-09-10T04:57:26.113Z,548
2016-09-10T04:58:25.407Z,588
2016-09-10T04:59:24.701Z,632
2016-09-10T05:00:26.171Z,680
2016-09-10T05:01:25.949Z,732
2016-09-10T05:02:24.709Z,772
2016-09-10T05:03:25.120Z,820
2016-09-10T05:04:25.039Z,868
2016-09-10T05:05:24.909Z,920
2016-09-10T05:06:24.446Z,956
2016-09-10T05:07:25.056Z,1004
2016-09-10T05:08:26.473Z,1064
2016-09-10T05:09:26.952Z,1128
2016-09-10T05:10:24.621Z,1192
2016-09-10T05:11:25.647Z,1244
2016-09-10T05:12:26.622Z,1308
2016-09-10T05:13:26.969Z,1372
2016-09-10T05:14:25.960Z,1432
2016-09-10T05:15:27.379Z,1492
2016-09-10T05:16:25.058Z,1552
2016-09-10T05:17:26.506Z,1628
2016-09-10T05:18:27.392Z,1696
2016-09-10T05:19:26.752Z,1768
2016-09-10T05:20:25.970Z,1836
2016-09-10T05:21:25.635Z,1908
2016-09-10T05:22:25.811Z,1980
2016-09-10T05:23:26.369Z,2048
2016-09-10T05:24:25.862Z,2112
2016-09-10T05:25:26.994Z,2184
2016-09-10T05:26:25.333Z,2260
2016-09-10T05:27:26.855Z,2344
2016-09-10T05:28:26.947Z,2420
2016-09-10T05:29:26.318Z,2500
2016-09-10T05:30:25.749Z,2588
2016-09-10T05:31:26.434Z,2676
2016-09-10T05:32:26.528Z,2756
2016-09-10T05:33:26.778Z,2844
2016-09-10T05:34:27.126Z,2928
2016-09-10T05:35:24.780Z,2988
2016-09-10T05:36:26.381Z,3068
2016-09-10T05:37:26.750Z,3160
2016-09-10T05:38:27.059Z,3276
2016-09-10T05:39:26.392Z,3376
2016-09-10T05:40:24.971Z,3448
2016-09-10T05:41:25.726Z,3524
2016-09-10T05:42:26.451Z,3608
2016-09-10T05:43:26.525Z,3668
2016-09-10T05:44:25.893Z,3776
2016-09-10T05:45:27.303Z,3856
2016-09-10T05:46:26.775Z,3928
2016-09-10T05:47:27.922Z,3996
2016-09-10T05:48:26.386Z,4100
2016-09-10T05:49:26.875Z,4220
2016-09-10T05:50:26.709Z,4308
2016-09-10T05:51:25.824Z,4424
2016-09-10T05:52:26.491Z,4512
2016-09-10T05:53:26.706Z,4636
2016-09-10T05:54:26.319Z,4744
2016-09-10T05:55:26.815Z,4848
2016-09-10T05:56:26.395Z,4936
2016-09-10T05:57:26.873Z,5048
2016-09-10T05:58:26.880Z,5132
2016-09-10T05:59:25.750Z,5140
2016-09-10T06:00:26.594Z,5152
2016-09-10T06:01:25.973Z,5256
2016-09-10T06:02:27.096Z,5372
2016-09-10T06:03:27.911Z,5628
2016-09-10T06:04:26.818Z,5624
2016-09-10T06:05:28.297Z,5792
2016-09-10T06:06:27.547Z,5940
2016-09-10T06:07:25.958Z,6088
2016-09-10T06:08:27.446Z,6220
2016-09-10T06:09:26.738Z,6356
2016-09-10T06:10:26.768Z,6424
2016-09-10T06:11:27.319Z,6512
2016-09-10T06:12:27.308Z,6532
2016-09-10T06:13:26.442Z,6448
2016-09-10T06:14:26.425Z,6612
2016-09-10T06:15:26.337Z,6788
2016-09-10T06:16:27.120Z,7032
2016-09-10T06:17:26.675Z,7044
2016-09-10T06:18:27.851Z,7272
2016-09-10T06:19:26.594Z,7388
2016-09-10T06:20:27.784Z,7456
2016-09-10T06:21:26.191Z,7504
2016-09-10T06:22:26.538Z,7696
2016-09-10T06:23:27.411Z,7860
2016-09-10T06:24:27.086Z,7988
2016-09-10T06:25:27.389Z,8144
2016-09-10T06:26:27.003Z,8256
2016-09-10T06:27:26.652Z,8232
2016-09-10T06:28:27.675Z,8336
2016-09-10T06:29:27.531Z,8508
2016-09-10T06:30:27.249Z,8512
2016-09-10T06:31:26.099Z,8620
2016-09-10T06:32:26.682Z,8812
2016-09-10T06:33:26.605Z,9024
2016-09-10T06:34:26.503Z,9104
2016-09-10T06:35:27.456Z,9104
2016-09-10T06:36:27.606Z,9184
2016-09-10T06:37:26.807Z,9208
2016-09-10T06:38:26.849Z,9248
2016-09-10T06:39:27.632Z,9304
2016-09-10T06:40:27.320Z,9384
2016-09-10T06:41:28.562Z,9464
2016-09-10T06:42:27.726Z,9544
2016-09-10T06:43:28.021Z,9624
2016-09-10T06:44:26.926Z,9768
2016-09-10T06:45:27.220Z,9756
2016-09-10T06:46:27.546Z,9960
2016-09-10T06:47:27.755Z,9944
2016-09-10T06:48:29.121Z,10192
2016-09-10T06:49:28.312Z,10116
2016-09-10T06:50:28.479Z,10420
2016-09-10T06:51:27.891Z,10436
2016-09-10T06:52:27.074Z,10616
2016-09-10T06:53:27.374Z,10632
2016-09-10T06:54:26.963Z,10552
2016-09-10T06:55:26.633Z,10944
2016-09-10T06:56:28.883Z,11028
2016-09-10T06:57:30.025Z,11136
2016-09-10T06:58:28.233Z,11228
2016-09-10T06:59:27.183Z,11308
2016-09-10T07:00:27.632Z,11408
2016-09-10T07:01:28.902Z,11460
2016-09-10T07:02:27.999Z,11588
2016-09-10T07:03:27.821Z,11700
2016-09-10T07:04:27.444Z,11788
2016-09-10T07:05:27.667Z,11972
2016-09-10T07:06:27.114Z,12080
2016-09-10T07:07:28.119Z,12156
2016-09-10T07:08:27.499Z,12236
2016-09-10T07:09:27.971Z,13896
2016-09-10T07:10:27.664Z,17312
2016-09-10T07:11:27.715Z,17888
2016-09-10T07:12:28.670Z,16320
2016-09-10T07:13:29.549Z,16992
2016-09-10T07:14:28.280Z,16672
2016-09-10T07:15:29.486Z,16608
2016-09-10T07:16:28.432Z,16608
2016-09-10T07:17:27.519Z,14104
2016-09-10T07:18:28.612Z,13132
2016-09-10T07:19:27.885Z,13164
2016-09-10T07:20:28.186Z,13260
2016-09-10T07:21:27.671Z,13340
2016-09-10T07:22:27.968Z,13424
2016-09-10T07:23:27.339Z,13536
2016-09-10T07:24:28.337Z,13560
2016-09-10T07:25:28.069Z,13656
2016-09-10T07:26:27.567Z,13720
2016-09-10T07:27:28.935Z,13784
2016-09-10T07:28:27.496Z,13956
2016-09-10T07:29:28.084Z,14084
2016-09-10T07:30:28.855Z,14196
2016-09-10T07:31:28.864Z,14416
2016-09-10T07:32:29.022Z,16388
2016-09-10T07:33:28.847Z,21728
2016-09-10T07:34:29.059Z,24992
2016-09-10T07:35:28.073Z,26272
2016-09-10T07:36:29.888Z,26560
2016-09-10T07:37:28.632Z,27808
2016-09-10T07:38:27.570Z,28672
2016-09-10T07:39:29.485Z,29152
2016-09-10T07:40:29.242Z,27968
2016-09-10T07:41:29.171Z,22560
2016-09-10T07:42:28.927Z,16916
2016-09-10T07:43:29.423Z,15344
2016-09-10T07:44:28.590Z,15244
2016-09-10T07:45:28.714Z,15228
2016-09-10T07:46:30.584Z,15236
2016-09-10T07:47:29.539Z,15352
2016-09-10T07:48:29.240Z,15508
2016-09-10T07:49:29.631Z,15984
2016-09-10T07:50:29.262Z,19104
2016-09-10T07:51:28.032Z,24544
2016-09-10T07:52:29.257Z,29792
2016-09-10T07:53:28.663Z,30720
2016-09-10T07:54:29.368Z,30592
2016-09-10T07:55:30.059Z,30016
2016-09-10T07:56:28.923Z,30496
2016-09-10T07:57:29.504Z,30816
2016-09-10T07:58:29.209Z,31136
2016-09-10T07:59:29.552Z,31200
2016-09-10T08:00:29.993Z,32320
2016-09-10T08:01:29.363Z,33600
2016-09-10T08:02:29.459Z,32928
2016-09-10T08:03:29.993Z,32800
2016-09-10T08:04:30.145Z,33312
2016-09-10T08:05:31.617Z,33408
2016-09-10T08:06:29.515Z,34016
2016-09-10T08:07:30.381Z,34272
2016-09-10T08:08:29.715Z,32832
2016-09-10T08:09:29.491Z,31904
2016-09-10T08:10:29.320Z,32896
2016-09-10T08:11:29.294Z,33280
2016-09-10T08:12:29.959Z,32672
2016-09-10T08:13:29.707Z,33216
2016-09-10T08:14:29.417Z,33312
2016-09-10T08:15:29.871Z,35552
2016-09-10T08:16:30.194Z,34464
2016-09-10T08:17:29.721Z,34176
2016-09-10T08:18:29.985Z,34496
2016-09-10T08:19:29.429Z,34688
2016-09-10T08:20:31.842Z,34112
2016-09-10T08:21:29.774Z,34848
2016-09-10T08:22:29.106Z,35616
2016-09-10T08:23:29.151Z,36224
2016-09-10T08:24:29.869Z,35296
2016-09-10T08:25:30.319Z,33632
2016-09-10T08:26:30.313Z,34272
2016-09-10T08:27:29.289Z,34784
2016-09-10T08:28:29.891Z,35776
2016-09-10T08:29:30.778Z,35488
2016-09-10T08:30:31.626Z,36096
2016-09-10T08:31:30.548Z,37600
2016-09-10T08:32:30.677Z,35744
2016-09-10T08:33:31.393Z,36288
2016-09-10T08:34:29.666Z,35872
2016-09-10T08:35:31.328Z,35808
2016-09-10T08:36:30.023Z,35520
2016-09-10T08:37:32.077Z,36192
2016-09-10T08:38:30.125Z,37120
2016-09-10T08:39:30.091Z,37312
2016-09-10T08:40:30.131Z,37728
2016-09-10T08:41:31.384Z,37952
2016-09-10T08:42:31.156Z,38976
2016-09-10T08:43:30.433Z,38048
2016-09-10T08:44:31.074Z,37024
2016-09-10T08:45:29.831Z,38144
2016-09-10T08:46:31.067Z,37376
2016-09-10T08:47:30.440Z,36672
2016-09-10T08:48:30.087Z,36864
2016-09-10T08:49:31.700Z,36864
2016-09-10T08:50:32.214Z,36800
2016-09-10T08:51:30.581Z,38688
2016-09-10T08:52:29.426Z,38784
2016-09-10T08:53:29.996Z,38688
2016-09-10T08:54:31.831Z,36640
2016-09-10T08:55:30.618Z,34272
2016-09-10T08:56:31.233Z,37184
2016-09-10T08:57:31.243Z,36672
2016-09-10T08:58:30.265Z,39872
2016-09-10T08:59:31.158Z,39008
2016-09-10T09:00:30.658Z,39744
2016-09-10T09:01:32.304Z,41728
2016-09-10T09:02:30.194Z,42688
2016-09-10T09:03:31.073Z,45792
2016-09-10T09:04:30.643Z,45760
2016-09-10T09:05:30.781Z,44928
2016-09-10T09:06:31.070Z,46528
2016-09-10T09:07:31.837Z,48064
2016-09-10T09:08:31.604Z,45632
2016-09-10T09:09:33.646Z,46784
2016-09-10T09:10:30.226Z,46592
2016-09-10T09:11:30.265Z,45024
2016-09-10T09:12:32.644Z,44384
2016-09-10T09:13:32.985Z,43104
2016-09-10T09:14:32.422Z,41600
2016-09-10T09:15:31.743Z,42080
2016-09-10T09:16:33.307Z,41728
2016-09-10T09:17:31.884Z,44736
2016-09-10T09:18:32.093Z,46784
2016-09-10T09:19:32.806Z,47392
2016-09-10T09:20:32.157Z,45952
2016-09-10T09:21:31.703Z,46016
2016-09-10T09:22:32.562Z,43008
2016-09-10T09:23:31.977Z,42368
2016-09-10T09:24:34.413Z,49472
2016-09-10T09:25:31.822Z,39808
2016-09-10T09:26:32.189Z,37504
2016-09-10T09:27:34.292Z,50272
2016-09-10T09:28:34.055Z,45376
2016-09-10T09:29:31.859Z,40960
2016-09-10T09:30:31.882Z,42688
2016-09-10T09:31:32.766Z,50944
2016-09-10T09:32:32.634Z,47040
2016-09-10T09:33:34.295Z,45120
2016-09-10T09:34:32.982Z,49984
2016-09-10T09:35:32.203Z,50240
2016-09-10T09:36:32.139Z,46848
2016-09-10T09:37:33.194Z,41824
2016-09-10T09:38:33.950Z,46816
2016-09-10T09:39:31.886Z,47968
2016-09-10T09:40:32.180Z,50528
2016-09-10T09:41:32.877Z,44256
2016-09-10T09:42:32.507Z,41952
2016-09-10T09:43:35.308Z,39744
2016-09-10T09:44:32.692Z,41856
2016-09-10T09:45:35.961Z,48416
2016-09-10T09:46:32.721Z,50080
2016-09-10T09:47:31.622Z,48960
2016-09-10T09:48:33.237Z,45184
2016-09-10T09:49:34.251Z,44352
2016-09-10T09:50:33.208Z,43584
2016-09-10T09:51:32.324Z,41408
2016-09-10T09:52:33.599Z,42496
2016-09-10T09:53:32.234Z,38688
2016-09-10T09:54:34.511Z,26240
2016-09-10T09:55:32.461Z,21216
2016-09-10T09:56:34.857Z,20064
2016-09-10T09:57:34.935Z,19584
2016-09-10T09:58:32.343Z,19296
2016-09-10T09:59:32.589Z,19072
2016-09-10T10:00:32.605Z,18880
2016-09-10T10:01:32.652Z,18848
2016-09-10T10:02:34.598Z,18720
2016-09-10T10:03:32.273Z,18496
2016-09-10T10:04:33.912Z,18432
2016-09-10T10:05:32.598Z,18272
2016-09-10T10:06:34.202Z,18224
2016-09-10T10:07:33.487Z,18204
2016-09-10T10:08:34.731Z,18224
2016-09-10T10:09:33.896Z,18224
2016-09-10T10:10:33.754Z,18144
2016-09-10T10:11:36.449Z,18120
2016-09-10T10:12:34.280Z,18144
2016-09-10T10:13:32.850Z,18140
2016-09-10T10:14:35.107Z,18112
2016-09-10T10:15:35.881Z,18120
2016-09-10T10:16:33.589Z,18052
2016-09-10T10:17:35.166Z,17996
2016-09-10T10:18:32.974Z,17964
2016-09-10T10:19:32.507Z,17884
2016-09-10T10:20:34.641Z,17876
2016-09-10T10:21:35.424Z,17848
2016-09-10T10:22:34.997Z,17816
2016-09-10T10:23:34.503Z,17828
2016-09-10T10:24:34.098Z,17828
2016-09-10T10:25:32.796Z,17796
2016-09-10T10:26:34.455Z,17744
2016-09-10T10:27:34.041Z,17712
2016-09-10T10:28:34.185Z,17720
2016-09-10T10:29:34.027Z,17716
2016-09-10T10:30:35.026Z,17668
2016-09-10T10:31:34.010Z,17628
2016-09-10T10:32:34.376Z,17588
2016-09-10T10:33:34.513Z,17564
2016-09-10T10:34:34.135Z,17540
2016-09-10T10:35:35.036Z,17556
2016-09-10T10:36:34.903Z,17528
2016-09-10T10:37:34.062Z,17552
2016-09-10T10:38:33.621Z,17592
2016-09-10T10:39:34.951Z,17628
2016-09-10T10:40:36.233Z,17672
2016-09-10T10:41:35.363Z,17784
2016-09-10T10:42:34.859Z,17784
2016-09-10T10:43:35.014Z,17784
2016-09-10T10:44:34.686Z,17784
2016-09-10T10:45:35.338Z,17840
2016-09-10T10:46:34.797Z,17888
2016-09-10T10:47:36.452Z,17968
2016-09-10T10:48:34.324Z,18052
2016-09-10T10:49:35.621Z,18136
2016-09-10T10:50:35.035Z,18336
2016-09-10T10:51:34.712Z,18496
2016-09-10T10:52:36.256Z,18688
2016-09-10T10:53:35.344Z,18912
2016-09-10T10:54:34.686Z,19232
2016-09-10T10:55:34.546Z,19776
2016-09-10T10:56:37.039Z,20704
2016-09-10T10:57:35.447Z,22272
2016-09-10T10:58:35.678Z,27040
2016-09-10T10:59:36.724Z,38080
2016-09-10T11:00:35.230Z,44896
2016-09-10T11:01:34.791Z,45120
2016-09-10T11:02:36.403Z,40448
2016-09-10T11:03:35.398Z,38272
2016-09-10T11:04:34.735Z,38912
2016-09-10T11:05:36.303Z,38848
2016-09-10T11:06:36.229Z,39648
2016-09-10T11:07:35.643Z,40032
2016-09-10T11:08:34.905Z,39328
2016-09-10T11:09:38.215Z,39616
2016-09-10T11:10:36.315Z,44192
2016-09-10T11:11:35.207Z,44064
2016-09-10T11:12:36.040Z,44192
2016-09-10T11:13:35.300Z,44096
2016-09-10T11:14:34.342Z,39520
2016-09-10T11:15:35.545Z,36992
2016-09-10T11:16:35.476Z,40064
2016-09-10T11:17:36.093Z,42112
2016-09-10T11:18:35.700Z,41120
2016-09-10T11:19:35.598Z,41024
2016-09-10T11:20:35.197Z,43488
2016-09-10T11:21:35.797Z,43008
2016-09-10T11:22:37.406Z,43648
2016-09-10T11:23:36.706Z,41504
2016-09-10T11:24:36.594Z,41952
2016-09-10T11:25:35.232Z,44000
2016-09-10T11:26:35.639Z,42112
2016-09-10T11:27:37.728Z,41216
2016-09-10T11:28:35.716Z,45504
2016-09-10T11:29:37.229Z,49312
2016-09-10T11:30:36.665Z,45440
2016-09-10T11:31:36.210Z,44480
2016-09-10T11:32:36.734Z,44992
2016-09-10T11:33:36.115Z,45792
2016-09-10T11:34:37.411Z,45024
2016-09-10T11:35:36.446Z,45664
2016-09-10T11:36:35.970Z,44960
2016-09-10T11:37:38.868Z,41600
2016-09-10T11:38:37.270Z,39584
2016-09-10T11:39:36.449Z,40384
2016-09-10T11:40:37.537Z,45056
2016-09-10T11:41:36.171Z,45728
2016-09-10T11:42:36.815Z,45376
2016-09-10T11:43:37.619Z,45856
2016-09-10T11:44:35.616Z,50560
2016-09-10T11:45:37.509Z,52224
2016-09-10T11:46:38.270Z,50688
2016-09-10T11:47:37.967Z,50208
2016-09-10T11:48:37.355Z,48032
2016-09-10T11:49:36.753Z,46656
2016-09-10T11:50:37.077Z,46464
2016-09-10T11:51:38.155Z,47168
2016-09-10T11:52:38.087Z,44096
2016-09-10T11:53:36.728Z,40864
2016-09-10T11:54:37.396Z,40800
2016-09-10T11:55:37.242Z,39104
2016-09-10T11:56:36.835Z,42912
2016-09-10T11:57:37.287Z,40992
2016-09-10T11:58:36.769Z,38624
2016-09-10T11:59:37.344Z,38624
2016-09-10T12:00:36.948Z,38784
2016-09-10T12:01:38.122Z,38784
2016-09-10T12:02:38.141Z,35072
2016-09-10T12:03:36.307Z,42272
2016-09-10T12:04:38.142Z,46912
2016-09-10T12:05:37.103Z,47552
2016-09-10T12:06:38.154Z,45088
2016-09-10T12:07:38.366Z,51840
2016-09-10T12:08:37.753Z,49216
2016-09-10T12:09:37.864Z,44224
2016-09-10T12:10:36.833Z,45952
2016-09-10T12:11:38.893Z,46464
2016-09-10T12:12:37.835Z,51104
2016-09-10T12:13:37.334Z,41664
2016-09-10T12:14:39.059Z,32896
2016-09-10T12:15:37.323Z,39264
2016-09-10T12:16:39.003Z,37440
2016-09-10T12:17:37.815Z,38464
2016-09-10T12:18:38.968Z,43232
2016-09-10T12:19:38.628Z,41728
2016-09-10T12:20:40.045Z,42624
2016-09-10T12:21:39.395Z,42304
2016-09-10T12:22:37.926Z,34592
2016-09-10T12:23:38.996Z,37056
2016-09-10T12:24:38.121Z,38656
2016-09-10T12:25:37.289Z,35808
2016-09-10T12:26:37.972Z,37824
2016-09-10T12:27:37.910Z,41504
2016-09-10T12:28:38.078Z,40416
2016-09-10T12:29:39.142Z,38016
2016-09-10T12:30:37.951Z,39424
2016-09-10T12:31:39.648Z,33280
2016-09-10T12:32:37.534Z,31264
2016-09-10T12:33:37.680Z,35072
2016-09-10T12:34:42.001Z,33568
2016-09-10T12:35:37.588Z,31776
2016-09-10T12:36:37.707Z,32064
2016-09-10T12:37:38.594Z,29504
2016-09-10T12:38:38.386Z,29728
2016-09-10T12:39:39.571Z,30400
2016-09-10T12:40:38.613Z,33920
2016-09-10T12:41:39.115Z,36128
2016-09-10T12:42:38.143Z,33408
2016-09-10T12:43:39.006Z,33376
2016-09-10T12:44:38.269Z,33376
2016-09-10T12:45:38.209Z,31488
2016-09-10T12:46:37.670Z,28416
2016-09-10T12:47:37.486Z,27904
2016-09-10T12:48:39.898Z,24928
2016-09-10T12:49:39.637Z,26208
2016-09-10T12:50:39.328Z,31008
2016-09-10T12:51:39.294Z,32064
2016-09-10T12:52:38.196Z,29216
2016-09-10T12:53:38.379Z,27424
2016-09-10T12:54:39.228Z,25792
2016-09-10T12:55:38.878Z,27744
2016-09-10T12:56:38.954Z,29824
2016-09-10T12:57:39.217Z,28064
2016-09-10T12:58:39.264Z,26048
2016-09-10T12:59:39.915Z,25344
2016-09-10T13:00:39.698Z,25536
2016-09-10T13:01:38.636Z,29696
2016-09-10T13:02:39.880Z,30560
2016-09-10T13:03:38.668Z,27584
2016-09-10T13:04:40.158Z,22944
2016-09-10T13:05:40.107Z,25536
2016-09-10T13:06:40.199Z,25248
2016-09-10T13:07:39.562Z,26112
2016-09-10T13:08:39.368Z,27616
2016-09-10T13:09:40.619Z,27264
2016-09-10T13:10:39.702Z,25312
2016-09-10T13:11:40.034Z,20640
2016-09-10T13:12:39.634Z,21664
2016-09-10T13:13:39.865Z,21824
2016-09-10T13:14:40.224Z,21184
2016-09-10T13:15:39.603Z,20320
2016-09-10T13:16:39.424Z,23456
2016-09-10T13:17:39.596Z,26304
2016-09-10T13:18:40.729Z,23680
2016-09-10T13:19:40.458Z,22560
2016-09-10T13:20:39.782Z,26752
2016-09-10T13:21:39.515Z,28320
2016-09-10T13:22:39.526Z,23712
2016-09-10T13:23:39.127Z,22336
2016-09-10T13:24:39.486Z,21728
2016-09-10T13:25:39.402Z,21600
2016-09-10T13:26:39.677Z,21952
2016-09-10T13:27:39.080Z,21088
2016-09-10T13:28:39.969Z,20768
2016-09-10T13:29:39.869Z,20800
2016-09-10T13:30:39.857Z,19712
2016-09-10T13:31:39.978Z,19104
2016-09-10T13:32:40.035Z,19232
2016-09-10T13:33:40.364Z,18432